Time;durP1;ratioP1;P1;durP2;ratioP2;P2;SDS_P1;SDS_P2;PMS_P1;PMS_P2;Temp;Humidity;BMP_temperature;BMP_pressure;BME280_temperature;BME280_humidity;BME280_pressure;Samples;Min_cycle;Max_cycle;Signal;HPM_P1;HPM_P2
2023/07/02 00:01:36;;;;;;;3.25;2.00;;;;;;;;;;4936206;29;20028;-59
2023/07/02 00:04:03;;;;;;;2.65;1.67;;;;;;;;;;4938682;29;20096;-58
2023/07/02 00:06:32;;;;;;;5.97;2.33;;;;;;;;;;4935926;29;20038;-58
2023/07/02 00:08:59;;;;;;;2.38;1.13;;;;;;;;;;4934859;29;20479;-58
2023/07/02 00:11:25;;;;;;;2.35;1.67;;;;;;;;;;4931106;29;20036;-58
2023/07/02 00:13:52;;;;;;;3.00;1.97;;;;;;;;;;4931028;29;20099;-59
2023/07/02 00:16:19;;;;;;;6.43;1.10;;;;;;;;;;4931148;29;20098;-58
2023/07/02 00:18:52;;;;;;;1.58;1.08;;;;;;;;;;4931261;29;20034;-58
2023/07/02 00:21:20;;;;;;;1.02;0.75;;;;;;;;;;4942702;29;20504;-59
2023/07/02 00:23:47;;;;;;;0.85;0.75;;;;;;;;;;4955084;29;20402;-58
2023/07/02 00:26:14;;;;;;;1.17;0.77;;;;;;;;;;4955153;29;20402;-58
2023/07/02 00:28:41;;;;;;;1.40;1.10;;;;;;;;;;4955274;29;20027;-58
2023/07/02 00:31:08;;;;;;;1.33;1.00;;;;;;;;;;4954102;29;20023;-59
2023/07/02 00:33:35;;;;;;;4.57;1.07;;;;;;;;;;4949599;29;20035;-58
2023/07/02 00:36:02;;;;;;;1.30;0.90;;;;;;;;;;4949653;29;20442;-58
2023/07/02 00:38:28;;;;;;;6.67;1.93;;;;;;;;;;4949212;29;20030;-59
2023/07/02 00:40:55;;;;;;;1.40;1.00;;;;;;;;;;4931311;29;20035;-58
2023/07/02 00:43:22;;;;;;;1.83;1.40;;;;;;;;;;4916548;29;20506;-59
2023/07/02 00:45:49;;;;;;;2.57;1.30;;;;;;;;;;4916569;29;20431;-59
2023/07/02 00:48:16;;;;;;;1.60;1.10;;;;;;;;;;4934115;29;20036;-59
2023/07/02 00:50:43;;;;;;;2.40;1.50;;;;;;;;;;4936231;29;20490;-59
2023/07/02 00:53:13;;;;;;;1.77;1.30;;;;;;;;;;4916115;29;20099;-59
2023/07/02 00:55:39;;;;;;;2.00;1.10;;;;;;;;;;4941630;29;20046;-59
2023/07/02 00:58:08;;;;;;;6.93;1.20;;;;;;;;;;4949514;29;20034;-58
2023/07/02 01:00:35;;;;;;;4.33;1.43;;;;;;;;;;4949121;28;20118;-59
2023/07/02 01:03:02;;;;;;;1.17;0.93;;;;;;;;;;4949357;29;20031;-59
2023/07/02 01:05:35;;;;;;;0.80;0.80;;;;;;;;;;4954207;29;20039;-58
2023/07/02 01:08:08;;;;;;;0.60;0.50;;;;;;;;;;4938203;29;20106;-59
2023/07/02 01:10:35;;;;;;;1.23;1.00;;;;;;;;;;4935219;29;20030;-59
2023/07/02 01:13:12;;;;;;;1.50;1.07;;;;;;;;;;4935255;29;20347;-58
2023/07/02 01:15:39;;;;;;;3.13;1.20;;;;;;;;;;4934686;29;20028;-59
2023/07/02 01:18:06;;;;;;;3.07;1.50;;;;;;;;;;4930065;29;20032;-59
2023/07/02 01:20:34;;;;;;;2.13;1.17;;;;;;;;;;4930131;29;20464;-59
2023/07/02 01:23:03;;;;;;;0.80;0.60;;;;;;;;;;4940863;29;20031;-59
2023/07/02 01:25:30;;;;;;;2.23;0.90;;;;;;;;;;4947419;29;20043;-59
2023/07/02 01:27:58;;;;;;;0.97;0.87;;;;;;;;;;4954235;29;20584;-59
2023/07/02 01:30:25;;;;;;;0.90;0.80;;;;;;;;;;4954050;29;20054;-59
2023/07/02 01:32:53;;;;;;;2.07;1.07;;;;;;;;;;4954132;29;20066;-59
2023/07/02 01:35:19;;;;;;;6.47;0.87;;;;;;;;;;4945546;29;20114;-58
2023/07/02 01:37:46;;;;;;;6.20;1.30;;;;;;;;;;4953870;29;20028;-59
2023/07/02 01:40:13;;;;;;;2.47;1.27;;;;;;;;;;4948382;29;20027;-59
2023/07/02 01:42:40;;;;;;;4.57;0.70;;;;;;;;;;4948868;29;20497;-59
2023/07/02 01:45:07;;;;;;;0.70;0.60;;;;;;;;;;4948786;29;20035;-59
2023/07/02 01:47:34;;;;;;;0.73;0.70;;;;;;;;;;4948767;29;20617;-58
2023/07/02 01:50:03;;;;;;;2.20;1.17;;;;;;;;;;4942909;29;20102;-58
2023/07/02 01:52:32;;;;;;;1.47;0.93;;;;;;;;;;4920735;29;20379;-59
2023/07/02 01:55:00;;;;;;;2.90;1.80;;;;;;;;;;4915718;29;20051;-58
2023/07/02 01:57:27;;;;;;;13.03;1.80;;;;;;;;;;4915977;29;20531;-59
2023/07/02 01:59:54;;;;;;;2.40;1.20;;;;;;;;;;4932459;29;20043;-58
2023/07/02 02:02:21;;;;;;;2.23;1.30;;;;;;;;;;4939328;29;20056;-58
2023/07/02 02:04:47;;;;;;;2.93;1.33;;;;;;;;;;4938848;29;20042;-58
2023/07/02 02:07:14;;;;;;;4.33;1.57;;;;;;;;;;4929674;29;20386;-59
2023/07/02 02:09:41;;;;;;;2.30;1.50;;;;;;;;;;4948130;29;20474;-58
2023/07/02 02:12:08;;;;;;;2.17;1.40;;;;;;;;;;4955559;28;20370;-59
2023/07/02 02:14:35;;;;;;;2.90;1.87;;;;;;;;;;4954382;29;20048;-58
2023/07/02 02:17:01;;;;;;;2.07;1.43;;;;;;;;;;4937894;29;20580;-58
2023/07/02 02:19:28;;;;;;;1.80;1.40;;;;;;;;;;4938292;29;20028;-58
2023/07/02 02:21:55;;;;;;;4.27;2.53;;;;;;;;;;4948033;29;20019;-58
2023/07/02 02:24:22;;;;;;;1.93;1.57;;;;;;;;;;4952606;29;20521;-58
2023/07/02 02:26:48;;;;;;;3.67;2.30;;;;;;;;;;4952413;29;20510;-58
2023/07/02 02:29:15;;;;;;;3.67;2.33;;;;;;;;;;4952175;29;20020;-58
2023/07/02 02:31:43;;;;;;;3.20;2.40;;;;;;;;;;4951720;29;20098;-58
2023/07/02 02:34:10;;;;;;;11.00;4.10;;;;;;;;;;4945284;29;20028;-58
2023/07/02 02:36:37;;;;;;;7.03;5.37;;;;;;;;;;4938226;29;20055;-58
2023/07/02 02:39:04;;;;;;;10.00;6.27;;;;;;;;;;4945321;29;20024;-58
2023/07/02 02:41:32;;;;;;;8.43;4.40;;;;;;;;;;4937721;29;20110;-58
2023/07/02 02:43:58;;;;;;;3.73;2.47;;;;;;;;;;4939100;29;20428;-58
2023/07/02 02:46:25;;;;;;;4.13;2.63;;;;;;;;;;4948243;29;20482;-58
2023/07/02 02:48:52;;;;;;;3.17;1.97;;;;;;;;;;4946811;29;20067;-58
2023/07/02 02:51:19;;;;;;;3.27;1.87;;;;;;;;;;4933928;29;20023;-57
2023/07/02 02:53:46;;;;;;;3.10;2.10;;;;;;;;;;4948060;29;20359;-58
2023/07/02 02:56:12;;;;;;;2.50;1.90;;;;;;;;;;4954534;29;20023;-59
2023/07/02 02:58:40;;;;;;;5.00;1.93;;;;;;;;;;4956972;29;20031;-58
2023/07/02 03:01:10;;;;;;;2.47;1.53;;;;;;;;;;4957315;29;20509;-58
2023/07/02 03:03:39;;;;;;;9.37;2.40;;;;;;;;;;4956257;29;20127;-58
2023/07/02 03:06:06;;;;;;;6.57;2.60;;;;;;;;;;4956556;29;20126;-58
2023/07/02 03:08:33;;;;;;;6.37;2.57;;;;;;;;;;4953089;29;20023;-58
2023/07/02 03:11:00;;;;;;;4.10;2.30;;;;;;;;;;4951316;29;20045;-57
2023/07/02 03:13:26;;;;;;;3.00;1.90;;;;;;;;;;4951443;29;20031;-58
2023/07/02 03:15:53;;;;;;;4.50;2.27;;;;;;;;;;4951427;29;20034;-58
2023/07/02 03:18:20;;;;;;;1.53;1.43;;;;;;;;;;4954144;29;20027;-58
2023/07/02 03:20:47;;;;;;;3.40;2.23;;;;;;;;;;4955987;29;20019;-58
2023/07/02 03:23:13;;;;;;;2.80;1.97;;;;;;;;;;4946932;28;20103;-58
2023/07/02 03:25:40;;;;;;;3.77;1.97;;;;;;;;;;4952441;29;20451;-58
2023/07/02 03:28:07;;;;;;;2.27;1.63;;;;;;;;;;4946738;29;20019;-59
2023/07/02 03:30:34;;;;;;;4.17;1.93;;;;;;;;;;4944559;29;20032;-57
2023/07/02 03:33:00;;;;;;;2.53;1.47;;;;;;;;;;4932466;29;20024;-58
2023/07/02 03:35:27;;;;;;;3.03;1.80;;;;;;;;;;4937959;29;20027;-58
2023/07/02 03:37:54;;;;;;;2.17;1.70;;;;;;;;;;4941500;29;20027;-58
2023/07/02 03:40:21;;;;;;;1.57;1.20;;;;;;;;;;4953240;29;20054;-57
2023/07/02 03:42:48;;;;;;;3.57;1.47;;;;;;;;;;4939429;29;20380;-57
2023/07/02 03:45:15;;;;;;;2.90;1.73;;;;;;;;;;4936610;29;20035;-57
2023/07/02 03:47:41;;;;;;;2.17;1.60;;;;;;;;;;4936926;29;20513;-57
2023/07/02 03:50:10;;;;;;;6.63;2.43;;;;;;;;;;4947125;29;20035;-57
2023/07/02 03:52:36;;;;;;;4.93;2.20;;;;;;;;;;4933665;29;20062;-57
2023/07/02 03:55:04;;;;;;;3.10;2.20;;;;;;;;;;4933714;29;20036;-58
2023/07/02 03:57:31;;;;;;;2.97;2.20;;;;;;;;;;4933832;29;20486;-57
2023/07/02 03:59:58;;;;;;;3.43;1.73;;;;;;;;;;4941327;29;20530;-57
2023/07/02 04:02:24;;;;;;;3.90;1.97;;;;;;;;;;4934229;29;20103;-58
2023/07/02 04:04:51;;;;;;;1.93;1.47;;;;;;;;;;4936704;29;20070;-57
2023/07/02 04:07:18;;;;;;;2.63;1.93;;;;;;;;;;4952194;29;20482;-58
2023/07/02 04:09:45;;;;;;;4.23;2.20;;;;;;;;;;4938741;29;20024;-58
2023/07/02 04:12:11;;;;;;;2.47;1.73;;;;;;;;;;4955630;29;20031;-58
2023/07/02 04:14:38;;;;;;;4.83;2.20;;;;;;;;;;4950954;29;20398;-57
2023/07/02 04:17:05;;;;;;;5.40;2.30;;;;;;;;;;4950303;29;20030;-57
2023/07/02 04:19:32;;;;;;;4.07;2.17;;;;;;;;;;4950084;29;20031;-58
2023/07/02 04:21:59;;;;;;;17.17;2.10;;;;;;;;;;4950306;29;20102;-58
2023/07/02 04:24:26;;;;;;;3.10;1.97;;;;;;;;;;4949495;29;20035;-57
2023/07/02 04:26:53;;;;;;;5.37;1.90;;;;;;;;;;4954585;29;20051;-58
2023/07/02 04:29:20;;;;;;;2.60;1.83;;;;;;;;;;4955122;29;20038;-57
2023/07/02 04:31:47;;;;;;;4.27;2.23;;;;;;;;;;4955308;29;20023;-57
2023/07/02 04:34:14;;;;;;;5.67;1.80;;;;;;;;;;4941943;29;20031;-56
2023/07/02 04:36:40;;;;;;;2.90;1.80;;;;;;;;;;4948218;29;20034;-57
2023/07/02 04:39:10;;;;;;;3.50;1.53;;;;;;;;;;4948218;29;20490;-57
2023/07/02 04:41:37;;;;;;;2.73;1.70;;;;;;;;;;4949593;29;20126;-57
2023/07/02 04:44:04;;;;;;;2.63;1.73;;;;;;;;;;4948150;29;20135;-57
2023/07/02 04:46:31;;;;;;;6.50;2.03;;;;;;;;;;4931432;29;20044;-58
2023/07/02 04:48:58;;;;;;;2.40;1.70;;;;;;;;;;4935643;29;20083;-58
2023/07/02 04:51:24;;;;;;;1.77;1.50;;;;;;;;;;4930165;29;20103;-58
2023/07/02 04:53:51;;;;;;;3.40;2.00;;;;;;;;;;4916541;29;20047;-58
2023/07/02 04:56:18;;;;;;;6.50;1.87;;;;;;;;;;4916542;29;20107;-58
2023/07/02 04:58:45;;;;;;;2.53;1.60;;;;;;;;;;4931179;29;20037;-59
2023/07/02 05:01:11;;;;;;;7.20;2.10;;;;;;;;;;4948962;29;20027;-58
2023/07/02 05:03:39;;;;;;;2.33;1.53;;;;;;;;;;4946133;29;20458;-57
2023/07/02 05:06:05;;;;;;;3.77;2.00;;;;;;;;;;4938643;29;20122;-58
2023/07/02 05:08:32;;;;;;;2.23;1.40;;;;;;;;;;4930180;29;20028;-58
2023/07/02 05:10:59;;;;;;;2.43;1.63;;;;;;;;;;4935115;29;20554;-59
2023/07/02 05:13:26;;;;;;;2.13;1.60;;;;;;;;;;4935258;29;20024;-58
2023/07/02 05:15:52;;;;;;;2.83;1.40;;;;;;;;;;4934954;29;20498;-58
2023/07/02 05:18:19;;;;;;;3.90;2.20;;;;;;;;;;4935358;29;20051;-58
2023/07/02 05:20:46;;;;;;;3.77;1.90;;;;;;;;;;4934771;29;20095;-58
2023/07/02 05:23:13;;;;;;;2.17;1.43;;;;;;;;;;4929962;29;20102;-58
2023/07/02 05:25:39;;;;;;;2.03;1.53;;;;;;;;;;4929957;29;20044;-58
2023/07/02 05:28:06;;;;;;;4.27;2.13;;;;;;;;;;4920889;29;20020;-58
2023/07/02 05:30:33;;;;;;;1.47;1.03;;;;;;;;;;4925776;29;20032;-58
2023/07/02 05:33:00;;;;;;;2.97;1.70;;;;;;;;;;4915601;29;20107;-58
2023/07/02 05:35:27;;;;;;;4.87;2.07;;;;;;;;;;4933578;29;20491;-58
2023/07/02 05:37:53;;;;;;;2.10;1.50;;;;;;;;;;4933582;29;20063;-58
2023/07/02 05:40:20;;;;;;;3.30;1.90;;;;;;;;;;4932164;29;20024;-58
2023/07/02 05:42:47;;;;;;;4.00;1.70;;;;;;;;;;4934574;29;20028;-58
2023/07/02 05:45:14;;;;;;;2.20;1.50;;;;;;;;;;4929584;29;20071;-58
2023/07/02 05:47:40;;;;;;;2.40;1.80;;;;;;;;;;4933017;29;20023;-58
2023/07/02 05:50:08;;;;;;;2.13;1.50;;;;;;;;;;4935179;29;20049;-58
2023/07/02 05:52:35;;;;;;;2.13;1.60;;;;;;;;;;4952702;29;20027;-58
2023/07/02 05:55:02;;;;;;;4.63;1.60;;;;;;;;;;4957100;29;20154;-58
2023/07/02 05:57:29;;;;;;;2.93;2.03;;;;;;;;;;4958116;29;20040;-58
2023/07/02 05:59:55;;;;;;;8.13;2.60;;;;;;;;;;4957959;29;20031;-57
2023/07/02 06:02:22;;;;;;;2.77;2.00;;;;;;;;;;4957908;29;20121;-57
2023/07/02 06:04:49;;;;;;;3.03;1.87;;;;;;;;;;4957882;29;20071;-58
2023/07/02 06:07:15;;;;;;;1.67;1.30;;;;;;;;;;4952334;29;20027;-58
2023/07/02 06:09:42;;;;;;;12.43;2.60;;;;;;;;;;4952547;29;20031;-58
2023/07/02 06:12:09;;;;;;;1.47;1.20;;;;;;;;;;4952434;29;20058;-58
2023/07/02 06:14:36;;;;;;;2.70;1.80;;;;;;;;;;4952087;29;20855;-58
2023/07/02 06:17:06;;;;;;;2.17;1.57;;;;;;;;;;4956113;29;20470;-58
2023/07/02 06:19:33;;;;;;;3.10;2.20;;;;;;;;;;4957450;29;20035;-58
2023/07/02 06:21:59;;;;;;;3.70;1.90;;;;;;;;;;4957326;29;20027;-58
2023/07/02 06:24:26;;;;;;;3.80;2.13;;;;;;;;;;4957072;29;20027;-58
2023/07/02 06:26:53;;;;;;;2.37;1.87;;;;;;;;;;4957415;29;20031;-58
2023/07/02 06:29:20;;;;;;;2.87;2.17;;;;;;;;;;4953212;29;20031;-58
2023/07/02 06:31:46;;;;;;;2.57;1.80;;;;;;;;;;4952523;29;20377;-58
2023/07/02 06:34:14;;;;;;;3.30;1.70;;;;;;;;;;4952108;29;20103;-58
2023/07/02 06:36:41;;;;;;;2.70;1.43;;;;;;;;;;4951960;29;20034;-58
2023/07/02 06:39:09;;;;;;;2.30;1.27;;;;;;;;;;4955341;29;20052;-57
2023/07/02 06:41:36;;;;;;;2.40;1.63;;;;;;;;;;4956841;29;20039;-58
2023/07/02 06:44:04;;;;;;;1.70;1.40;;;;;;;;;;4956777;29;20434;-58
2023/07/02 06:46:31;;;;;;;3.23;1.63;;;;;;;;;;4957023;29;20042;-58
2023/07/02 06:48:57;;;;;;;5.87;2.23;;;;;;;;;;4957130;29;20379;-58
2023/07/02 06:51:26;;;;;;;4.23;1.90;;;;;;;;;;4953253;29;20023;-58
2023/07/02 06:53:52;;;;;;;2.87;1.77;;;;;;;;;;4951687;29;20063;-58
2023/07/02 06:56:19;;;;;;;4.13;2.57;;;;;;;;;;4951370;29;20031;-58
2023/07/02 06:58:46;;;;;;;2.30;1.37;;;;;;;;;;4951601;28;20027;-57
2023/07/02 07:01:13;;;;;;;1.70;1.27;;;;;;;;;;4954488;29;20039;-58
2023/07/02 07:03:39;;;;;;;3.70;1.97;;;;;;;;;;4956861;29;20035;-58
2023/07/02 07:06:06;;;;;;;3.00;2.20;;;;;;;;;;4956881;29;20031;-58
2023/07/02 07:08:33;;;;;;;2.17;1.67;;;;;;;;;;4956718;29;20027;-57
2023/07/02 07:11:00;;;;;;;2.97;1.17;;;;;;;;;;4956473;29;20493;-58
2023/07/02 07:13:26;;;;;;;3.03;2.00;;;;;;;;;;4953162;29;20031;-57
2023/07/02 07:15:53;;;;;;;2.57;1.77;;;;;;;;;;4951229;29;20027;-58
2023/07/02 07:18:20;;;;;;;1.80;1.47;;;;;;;;;;4951002;29;20032;-58
2023/07/02 07:20:47;;;;;;;2.50;1.30;;;;;;;;;;4951431;29;20515;-58
2023/07/02 07:23:15;;;;;;;2.07;1.77;;;;;;;;;;4953552;29;20027;-57
2023/07/02 07:25:42;;;;;;;10.33;1.90;;;;;;;;;;4956408;29;20038;-58
2023/07/02 07:28:14;;;;;;;1.87;1.57;;;;;;;;;;4956178;29;20061;-57
2023/07/02 07:30:41;;;;;;;2.23;1.73;;;;;;;;;;4956427;29;20030;-58
2023/07/02 07:33:07;;;;;;;2.37;1.63;;;;;;;;;;4956160;29;20031;-57
2023/07/02 07:35:34;;;;;;;2.33;1.23;;;;;;;;;;4947444;29;20023;-57
2023/07/02 07:38:01;;;;;;;8.67;2.03;;;;;;;;;;4940484;29;20039;-57
2023/07/02 07:40:28;;;;;;;2.77;1.87;;;;;;;;;;4950915;29;20023;-57
2023/07/02 07:42:55;;;;;;;12.77;1.53;;;;;;;;;;4950944;29;20070;-58
2023/07/02 07:45:22;;;;;;;2.30;1.60;;;;;;;;;;4952381;29;20044;-58
2023/07/02 07:47:49;;;;;;;2.20;1.73;;;;;;;;;;4956001;29;20035;-58
2023/07/02 07:50:15;;;;;;;2.20;1.60;;;;;;;;;;4939862;29;20099;-57
2023/07/02 07:52:43;;;;;;;3.63;2.17;;;;;;;;;;4936757;29;20047;-58
2023/07/02 07:55:10;;;;;;;3.00;2.23;;;;;;;;;;4936869;29;20082;-57
2023/07/02 07:57:37;;;;;;;2.20;1.63;;;;;;;;;;4934301;29;20044;-58
2023/07/02 08:00:06;;;;;;;4.37;2.33;;;;;;;;;;4931451;29;20109;-58
2023/07/02 08:02:33;;;;;;;3.67;2.10;;;;;;;;;;4930902;29;20054;-57
2023/07/02 08:05:00;;;;;;;2.60;1.63;;;;;;;;;;4931242;29;20091;-58
2023/07/02 08:07:27;;;;;;;6.37;2.73;;;;;;;;;;4932914;29;20026;-57
2023/07/02 08:09:53;;;;;;;2.30;1.67;;;;;;;;;;4935835;29;20393;-57
2023/07/02 08:12:20;;;;;;;5.40;1.90;;;;;;;;;;4936530;29;20474;-57
2023/07/02 08:14:47;;;;;;;2.17;1.80;;;;;;;;;;4936391;29;20051;-57
2023/07/02 08:17:14;;;;;;;2.60;1.97;;;;;;;;;;4936399;29;20063;-57
2023/07/02 08:19:40;;;;;;;2.57;1.83;;;;;;;;;;4934118;29;20035;-57
2023/07/02 08:22:07;;;;;;;3.27;1.87;;;;;;;;;;4939421;29;20086;-58
2023/07/02 08:24:34;;;;;;;3.00;1.70;;;;;;;;;;4950057;29;20077;-57
2023/07/02 08:27:02;;;;;;;3.77;2.20;;;;;;;;;;4950002;29;20019;-57
2023/07/02 08:29:30;;;;;;;2.33;1.73;;;;;;;;;;4950886;29;20043;-57
2023/07/02 08:31:57;;;;;;;2.73;1.93;;;;;;;;;;4955217;29;20047;-57
2023/07/02 08:34:24;;;;;;;1.53;1.23;;;;;;;;;;4954930;29;20537;-58
2023/07/02 08:36:51;;;;;;;3.47;2.37;;;;;;;;;;4954634;29;20035;-57
2023/07/02 08:39:18;;;;;;;1.30;1.13;;;;;;;;;;4954884;29;20133;-57
2023/07/02 08:41:45;;;;;;;3.53;1.67;;;;;;;;;;4953836;29;20050;-58
2023/07/02 08:44:15;;;;;;;3.07;1.77;;;;;;;;;;4949584;29;20070;-57
2023/07/02 08:46:42;;;;;;;1.10;1.00;;;;;;;;;;4949673;29;20028;-57
2023/07/02 08:49:09;;;;;;;6.70;2.07;;;;;;;;;;4949671;29;20082;-57
2023/07/02 08:51:36;;;;;;;3.87;2.17;;;;;;;;;;4949765;29;20055;-57
2023/07/02 08:54:03;;;;;;;3.10;2.00;;;;;;;;;;4954489;29;20027;-58
2023/07/02 08:56:30;;;;;;;3.73;2.63;;;;;;;;;;4944349;29;20558;-57
2023/07/02 08:58:57;;;;;;;2.77;1.70;;;;;;;;;;4935409;29;20035;-57
2023/07/02 09:01:24;;;;;;;4.50;2.90;;;;;;;;;;4935587;29;20479;-57
2023/07/02 09:03:51;;;;;;;13.07;4.70;;;;;;;;;;4934428;29;20024;-57
2023/07/02 09:06:18;;;;;;;5.60;3.73;;;;;;;;;;4930230;29;20034;-58
2023/07/02 09:08:45;;;;;;;3.87;3.00;;;;;;;;;;4930086;29;20038;-57
2023/07/02 09:11:19;;;;;;;5.40;3.27;;;;;;;;;;4929961;29;20035;-58
2023/07/02 09:13:47;;;;;;;3.88;2.25;;;;;;;;;;4930380;29;20103;-57
2023/07/02 09:16:31;;;;;;;3.50;2.50;;;;;;;;;;4935303;29;20118;-57
2023/07/02 09:19:08;;;;;;;8.87;2.33;;;;;;;;;;4935104;29;20039;-57
2023/07/02 09:21:48;;;;;;;8.07;3.27;;;;;;;;;;4935429;29;20095;-57
2023/07/02 09:24:15;;;;;;;3.43;2.27;;;;;;;;;;4935195;29;20039;-57
2023/07/02 09:26:49;;;;;;;2.13;1.50;;;;;;;;;;4932775;29;20051;-57
2023/07/02 09:29:26;;;;;;;6.13;2.60;;;;;;;;;;4929799;29;20032;-58
2023/07/02 09:31:53;;;;;;;3.23;2.07;;;;;;;;;;4929870;29;20035;-57
2023/07/02 09:34:19;;;;;;;2.37;1.73;;;;;;;;;;4929829;29;20386;-57
2023/07/02 09:36:47;;;;;;;2.97;2.07;;;;;;;;;;4932090;29;20028;-57
2023/07/02 09:39:15;;;;;;;4.57;2.50;;;;;;;;;;4936160;29;20031;-57
2023/07/02 09:41:42;;;;;;;4.80;2.10;;;;;;;;;;4934591;29;20028;-58
2023/07/02 09:44:10;;;;;;;3.80;2.53;;;;;;;;;;4934794;29;20024;-57
2023/07/02 09:46:38;;;;;;;3.93;2.27;;;;;;;;;;4934903;29;20034;-57
2023/07/02 09:49:06;;;;;;;2.20;1.70;;;;;;;;;;4932450;29;20163;-57
2023/07/02 09:51:33;;;;;;;3.57;1.80;;;;;;;;;;4929867;29;20115;-57
2023/07/02 09:54:00;;;;;;;2.97;1.83;;;;;;;;;;4929568;29;20028;-57
2023/07/02 09:56:27;;;;;;;3.30;1.77;;;;;;;;;;4929550;29;20082;-57
2023/07/02 09:58:54;;;;;;;2.80;2.07;;;;;;;;;;4931055;29;20550;-57
2023/07/02 10:01:21;;;;;;;4.37;1.97;;;;;;;;;;4934583;29;20028;-57
2023/07/02 10:03:47;;;;;;;1.83;1.30;;;;;;;;;;4934891;29;20028;-57
2023/07/02 10:06:14;;;;;;;2.37;1.77;;;;;;;;;;4934716;29;20043;-57
2023/07/02 10:08:41;;;;;;;12.90;2.27;;;;;;;;;;4934942;29;20035;-57
2023/07/02 10:11:09;;;;;;;1.93;1.50;;;;;;;;;;4932832;29;20042;-57
2023/07/02 10:13:36;;;;;;;3.47;1.57;;;;;;;;;;4929336;29;20020;-57
2023/07/02 10:16:03;;;;;;;3.87;1.77;;;;;;;;;;4929518;29;20103;-57
2023/07/02 10:18:30;;;;;;;1.73;1.33;;;;;;;;;;4929332;29;20031;-57
2023/07/02 10:20:57;;;;;;;3.20;2.00;;;;;;;;;;4930893;29;20024;-57
2023/07/02 10:23:36;;;;;;;3.33;1.53;;;;;;;;;;4934871;29;20030;-57
2023/07/02 10:26:15;;;;;;;1.63;1.20;;;;;;;;;;4934387;29;20031;-57
2023/07/02 10:28:41;;;;;;;2.30;1.77;;;;;;;;;;4934669;29;20047;-57
2023/07/02 10:31:23;;;;;;;6.70;1.83;;;;;;;;;;4934677;29;20028;-57
2023/07/02 10:33:50;;;;;;;4.40;2.03;;;;;;;;;;4935047;29;20023;-57
2023/07/02 10:36:24;;;;;;;6.43;2.33;;;;;;;;;;4932596;29;20435;-58
2023/07/02 10:38:52;;;;;;;1.33;1.03;;;;;;;;;;4932769;29;20177;-57
2023/07/02 10:41:27;;;;;;;2.30;1.47;;;;;;;;;;4932891;29;20036;-58
2023/07/02 10:43:55;;;;;;;1.60;1.37;;;;;;;;;;4935550;29;20035;-58
2023/07/02 10:46:22;;;;;;;1.77;1.37;;;;;;;;;;4937682;29;20028;-57
2023/07/02 10:48:55;;;;;;;3.83;2.30;;;;;;;;;;4938159;29;20031;-57
2023/07/02 10:51:23;;;;;;;2.40;1.97;;;;;;;;;;4937810;29;20023;-57
2023/07/02 10:54:04;;;;;;;2.10;1.43;;;;;;;;;;4937656;29;20024;-57
2023/07/02 10:56:32;;;;;;;1.87;1.50;;;;;;;;;;4933430;29;20835;-57
2023/07/02 10:58:59;;;;;;;2.47;1.83;;;;;;;;;;4932623;29;20098;-57
2023/07/02 11:01:32;;;;;;;2.03;1.23;;;;;;;;;;4942557;29;20447;-57
2023/07/02 11:04:00;;;;;;;1.90;1.50;;;;;;;;;;4951465;29;20027;-57
2023/07/02 11:06:28;;;;;;;3.20;1.23;;;;;;;;;;4954972;29;20035;-57
2023/07/02 11:08:55;;;;;;;1.23;1.00;;;;;;;;;;4956152;29;20038;-57
2023/07/02 11:11:25;;;;;;;6.73;1.70;;;;;;;;;;4956633;29;20027;-57
2023/07/02 11:13:52;;;;;;;1.87;1.30;;;;;;;;;;4956595;29;20474;-57
2023/07/02 11:16:20;;;;;;;2.10;1.53;;;;;;;;;;4956094;29;20545;-57
2023/07/02 11:18:46;;;;;;;0.80;0.80;;;;;;;;;;4952585;29;20019;-57
2023/07/02 11:21:13;;;;;;;1.53;1.10;;;;;;;;;;4951288;29;20094;-57
2023/07/02 11:23:40;;;;;;;2.17;1.50;;;;;;;;;;4951142;29;20086;-57
2023/07/02 11:26:07;;;;;;;1.93;1.50;;;;;;;;;;4947801;29;20039;-57
2023/07/02 11:28:37;;;;;;;1.50;1.17;;;;;;;;;;4935097;29;20028;-57
2023/07/02 11:31:05;;;;;;;2.20;1.43;;;;;;;;;;4936809;29;20024;-58
2023/07/02 11:33:38;;;;;;;3.33;1.77;;;;;;;;;;4937352;29;20039;-57
2023/07/02 11:36:06;;;;;;;3.87;1.73;;;;;;;;;;4937184;29;20024;-57
2023/07/02 11:38:34;;;;;;;1.87;1.30;;;;;;;;;;4944239;29;20036;-57
2023/07/02 11:41:01;;;;;;;2.80;1.47;;;;;;;;;;4932930;29;20063;-57
2023/07/02 11:43:27;;;;;;;1.50;1.30;;;;;;;;;;4930808;29;20028;-57
2023/07/02 11:45:54;;;;;;;2.20;1.33;;;;;;;;;;4931071;29;20028;-57
2023/07/02 11:48:21;;;;;;;2.20;1.53;;;;;;;;;;4931575;29;20051;-57
2023/07/02 11:50:48;;;;;;;6.13;1.73;;;;;;;;;;4934774;29;20476;-57
2023/07/02 11:53:15;;;;;;;5.10;2.17;;;;;;;;;;4936876;29;20032;-57
2023/07/02 11:55:41;;;;;;;2.13;1.50;;;;;;;;;;4936758;29;20028;-57
2023/07/02 11:58:08;;;;;;;2.33;1.30;;;;;;;;;;4936660;29;20035;-57
2023/07/02 12:00:35;;;;;;;1.67;1.27;;;;;;;;;;4936397;29;20028;-57
2023/07/02 12:03:02;;;;;;;4.13;1.40;;;;;;;;;;4932746;29;20033;-57
2023/07/02 12:05:28;;;;;;;2.37;1.70;;;;;;;;;;4931090;29;20050;-57
2023/07/02 12:07:55;;;;;;;2.67;1.77;;;;;;;;;;4931241;29;20042;-57
2023/07/02 12:10:22;;;;;;;1.27;0.93;;;;;;;;;;4931251;29;20032;-57
2023/07/02 12:12:49;;;;;;;1.77;1.37;;;;;;;;;;4933980;29;20035;-57
2023/07/02 12:15:15;;;;;;;2.37;1.50;;;;;;;;;;4936544;29;20349;-57
2023/07/02 12:17:42;;;;;;;1.50;1.17;;;;;;;;;;4935737;29;20501;-57
2023/07/02 12:20:09;;;;;;;3.03;1.60;;;;;;;;;;4936369;29;20027;-57
2023/07/02 12:22:38;;;;;;;3.60;1.60;;;;;;;;;;4935888;29;20052;-57
2023/07/02 12:25:05;;;;;;;1.10;1.00;;;;;;;;;;4932948;29;20039;-57
2023/07/02 12:27:32;;;;;;;2.57;1.77;;;;;;;;;;4931044;29;20059;-57
2023/07/02 12:29:59;;;;;;;17.63;1.90;;;;;;;;;;4931073;29;20067;-57
2023/07/02 12:32:26;;;;;;;2.13;1.40;;;;;;;;;;4930942;29;20031;-57
2023/07/02 12:34:52;;;;;;;1.43;1.30;;;;;;;;;;4932880;29;20498;-56
2023/07/02 12:37:20;;;;;;;2.57;1.80;;;;;;;;;;4936087;29;20114;-57
2023/07/02 12:39:47;;;;;;;3.93;1.63;;;;;;;;;;4936239;29;20038;-57
2023/07/02 12:42:14;;;;;;;2.63;1.80;;;;;;;;;;4935824;29;20051;-57
2023/07/02 12:44:40;;;;;;;4.07;2.50;;;;;;;;;;4935775;29;20034;-57
2023/07/02 12:47:08;;;;;;;4.13;1.73;;;;;;;;;;4933099;29;20087;-57
2023/07/02 12:49:35;;;;;;;2.20;1.70;;;;;;;;;;4930192;29;20047;-57
2023/07/02 12:52:02;;;;;;;2.50;1.73;;;;;;;;;;4930427;29;20030;-57
2023/07/02 12:54:28;;;;;;;2.97;2.17;;;;;;;;;;4930343;29;20587;-57
2023/07/02 12:56:55;;;;;;;2.53;1.90;;;;;;;;;;4932321;29;20483;-56
2023/07/02 12:59:22;;;;;;;7.23;1.73;;;;;;;;;;4935466;29;20059;-57
2023/07/02 13:01:49;;;;;;;8.53;4.97;;;;;;;;;;4935453;29;20122;-57
2023/07/02 13:04:16;;;;;;;7.50;3.07;;;;;;;;;;4935531;29;20028;-57
2023/07/02 13:06:44;;;;;;;6.90;3.07;;;;;;;;;;4935240;29;20028;-57
2023/07/02 13:09:11;;;;;;;3.43;2.20;;;;;;;;;;4932744;29;20577;-57
2023/07/02 13:11:38;;;;;;;3.03;2.17;;;;;;;;;;4930176;29;20491;-57
2023/07/02 13:14:05;;;;;;;2.97;1.93;;;;;;;;;;4933486;29;20042;-57
2023/07/02 13:16:31;;;;;;;3.93;1.93;;;;;;;;;;4926938;29;20117;-57
2023/07/02 13:19:01;;;;;;;1.70;1.20;;;;;;;;;;4950826;29;20027;-56
2023/07/02 13:21:28;;;;;;;2.20;1.43;;;;;;;;;;4951938;29;20082;-57
2023/07/02 13:23:54;;;;;;;1.90;1.60;;;;;;;;;;4935390;29;20032;-57
2023/07/02 13:26:21;;;;;;;2.90;1.83;;;;;;;;;;4935162;29;20035;-57
2023/07/02 13:28:48;;;;;;;1.30;1.20;;;;;;;;;;4935364;29;20024;-57
2023/07/02 13:31:15;;;;;;;2.23;1.43;;;;;;;;;;4933028;29;20031;-57
2023/07/02 13:33:43;;;;;;;2.60;1.80;;;;;;;;;;4930059;29;20024;-56
2023/07/02 13:36:10;;;;;;;2.77;2.27;;;;;;;;;;4930101;29;20027;-57
2023/07/02 13:38:36;;;;;;;3.73;2.33;;;;;;;;;;4943527;29;20062;-57
2023/07/02 13:41:03;;;;;;;2.50;1.90;;;;;;;;;;4950407;29;20063;-57
2023/07/02 13:43:30;;;;;;;2.20;1.77;;;;;;;;;;4954090;29;20027;-57
2023/07/02 13:45:56;;;;;;;3.90;1.97;;;;;;;;;;4954207;29;20074;-57
2023/07/02 13:48:23;;;;;;;2.17;1.80;;;;;;;;;;4954242;29;20087;-57
2023/07/02 13:50:50;;;;;;;14.77;3.43;;;;;;;;;;4953932;29;20027;-58
2023/07/02 13:53:17;;;;;;;2.67;2.30;;;;;;;;;;4952375;29;20160;-57
2023/07/02 13:55:44;;;;;;;2.30;1.70;;;;;;;;;;4937000;29;20042;-58
2023/07/02 13:58:10;;;;;;;3.60;2.27;;;;;;;;;;4929767;29;20474;-57
2023/07/02 14:00:37;;;;;;;3.00;2.00;;;;;;;;;;4929525;29;20379;-57
2023/07/02 14:03:05;;;;;;;3.03;1.70;;;;;;;;;;4930643;29;20027;-58
2023/07/02 14:05:32;;;;;;;1.93;1.60;;;;;;;;;;4935007;29;20032;-57
2023/07/02 14:07:58;;;;;;;1.93;1.37;;;;;;;;;;4936948;29;20028;-57
2023/07/02 14:10:27;;;;;;;3.10;1.43;;;;;;;;;;4938168;29;20024;-57
2023/07/02 14:12:54;;;;;;;6.20;1.63;;;;;;;;;;4948368;29;20050;-57
2023/07/02 14:15:22;;;;;;;1.90;1.57;;;;;;;;;;4956308;29;20023;-58
2023/07/02 14:17:49;;;;;;;2.60;1.70;;;;;;;;;;4952048;29;20035;-58
2023/07/02 14:20:16;;;;;;;6.43;2.50;;;;;;;;;;4952498;29;20086;-58
2023/07/02 14:22:43;;;;;;;2.73;1.77;;;;;;;;;;4952463;29;20027;-57
2023/07/02 14:25:10;;;;;;;2.40;1.73;;;;;;;;;;4952500;29;20054;-58
2023/07/02 14:27:36;;;;;;;2.53;1.77;;;;;;;;;;4953682;29;20119;-58
2023/07/02 14:30:07;;;;;;;1.80;1.57;;;;;;;;;;4938339;29;20023;-57
2023/07/02 14:32:38;;;;;;;3.47;1.93;;;;;;;;;;4938142;29;20118;-57
2023/07/02 14:35:05;;;;;;;3.17;1.97;;;;;;;;;;4937941;29;20047;-58
2023/07/02 14:37:32;;;;;;;4.83;2.20;;;;;;;;;;4936818;29;20045;-57
2023/07/02 14:39:59;;;;;;;1.83;1.60;;;;;;;;;;4932458;29;20067;-58
2023/07/02 14:42:26;;;;;;;2.07;1.60;;;;;;;;;;4932930;29;20099;-58
2023/07/02 14:44:53;;;;;;;2.67;1.70;;;;;;;;;;4949854;29;20047;-58